createdAt,value
2019-01-24T00:00:11.415Z,1.70
2019-01-24T00:02:45.796Z,2.03
2019-01-24T00:05:24.479Z,3.07
2019-01-24T00:08:00.743Z,3.53
2019-01-24T00:10:36.557Z,3.30
2019-01-24T00:13:13.067Z,2.53
2019-01-24T00:15:47.303Z,2.20
2019-01-24T00:19:00.597Z,2.80
2019-01-24T00:21:35.613Z,3.30
2019-01-24T00:24:10.768Z,3.27
2019-01-24T00:27:07.387Z,1.80
2019-01-24T00:29:41.405Z,1.73
2019-01-24T00:32:18.996Z,2.70
2019-01-24T00:35:14.663Z,4.03
2019-01-24T00:37:50.131Z,2.80
2019-01-24T00:40:26.794Z,2.00
2019-01-24T00:43:05.026Z,1.73
2019-01-24T00:45:42.842Z,2.33
2019-01-24T00:48:17.762Z,2.20
2019-01-24T00:50:53.664Z,3.87
2019-01-24T00:53:29.185Z,5.10
2019-01-24T00:56:03.872Z,2.23
2019-01-24T00:58:40.650Z,2.10
2019-01-24T01:01:15.194Z,3.30
2019-01-24T01:03:50.410Z,2.33
2019-01-24T01:06:25.696Z,1.97
2019-01-24T01:09:00.303Z,2.17
2019-01-24T01:11:37.831Z,2.40
2019-01-24T01:14:17.201Z,3.30
2019-01-24T01:16:55.183Z,5.07
2019-01-24T01:19:43.856Z,4.10
2019-01-24T01:22:21.698Z,3.60
2019-01-24T01:25:00.463Z,3.93
2019-01-24T01:27:39.301Z,4.57
2019-01-24T01:30:21.897Z,3.93
2019-01-24T01:32:57.174Z,6.67
2019-01-24T01:35:32.572Z,4.70
2019-01-24T01:38:06.898Z,3.30
2019-01-24T01:40:40.572Z,4.20
2019-01-24T01:43:17.550Z,4.33
2019-01-24T01:45:53.029Z,3.03
2019-01-24T01:48:31.966Z,3.70
2019-01-24T01:51:09.217Z,4.43
2019-01-24T01:53:45.388Z,6.53
2019-01-24T01:56:20.672Z,4.60
2019-01-24T01:59:03.176Z,6.43
2019-01-24T02:01:45.643Z,5.53
2019-01-24T02:04:23.100Z,5.33
2019-01-24T02:06:58.140Z,6.27
2019-01-24T02:09:37.616Z,8.30
2019-01-24T02:12:12.909Z,6.37
2019-01-24T02:14:49.302Z,6.90
2019-01-24T02:17:27.127Z,7.60
2019-01-24T02:20:02.074Z,6.23
2019-01-24T02:22:38.244Z,7.50
2019-01-24T02:25:13.662Z,6.77
2019-01-24T02:27:50.170Z,5.90
2019-01-24T02:30:28.748Z,5.50
2019-01-24T02:33:05.242Z,6.20
2019-01-24T02:35:42.891Z,5.90
2019-01-24T02:38:23.813Z,6.77
2019-01-24T02:40:59.338Z,7.67
2019-01-24T02:43:34.726Z,9.43
2019-01-24T02:46:11.756Z,7.20
2019-01-24T02:48:50.303Z,8.70
2019-01-24T02:51:31.787Z,8.70
2019-01-24T02:54:10.306Z,10.33
2019-01-24T02:56:45.363Z,24.33
2019-01-24T02:59:20.468Z,33.63
2019-01-24T03:01:55.770Z,42.33
2019-01-24T03:04:30.852Z,27.33
2019-01-24T03:07:09.817Z,17.87
2019-01-24T03:09:47.689Z,17.00
2019-01-24T03:12:30.386Z,13.03
2019-01-24T03:15:18.142Z,11.70
2019-01-24T03:18:00.608Z,14.33
2019-01-24T03:20:39.455Z,10.83
2019-01-24T03:23:43.467Z,8.83
2019-01-24T03:26:25.310Z,9.77
2019-01-24T03:29:26.118Z,9.50
2019-01-24T03:32:07.719Z,8.37
2019-01-24T03:34:43.589Z,8.23
2019-01-24T03:37:39.004Z,7.70
2019-01-24T03:40:15.894Z,8.27
2019-01-24T03:42:50.196Z,9.47
2019-01-24T03:45:26.907Z,8.10
2019-01-24T03:48:01.336Z,6.90
2019-01-24T03:50:36.826Z,7.47
2019-01-24T03:53:12.114Z,6.20
2019-01-24T03:55:46.454Z,10.13
2019-01-24T03:58:20.783Z,9.07
2019-01-24T04:00:59.343Z,8.00
2019-01-24T04:03:34.026Z,11.03
2019-01-24T04:06:08.698Z,11.67
2019-01-24T04:08:45.059Z,10.63
2019-01-24T04:11:23.509Z,8.33
2019-01-24T04:14:01.620Z,7.90
2019-01-24T04:16:37.892Z,7.57
2019-01-24T04:19:15.609Z,7.37
2019-01-24T04:21:51.256Z,7.60
2019-01-24T04:24:25.640Z,6.83
2019-01-24T04:27:00.942Z,7.60
2019-01-24T04:29:36.494Z,7.27
2019-01-24T04:32:11.719Z,8.03
2019-01-24T04:35:09.194Z,7.33
2019-01-24T04:37:51.435Z,6.00
2019-01-24T04:40:27.102Z,6.27
2019-01-24T04:43:07.865Z,6.57
2019-01-24T04:45:43.789Z,5.63
2019-01-24T04:48:19.724Z,7.93
2019-01-24T04:50:55.601Z,6.40
2019-01-24T04:53:34.217Z,5.90
2019-01-24T04:56:12.017Z,8.07
2019-01-24T04:58:50.617Z,5.23
2019-01-24T05:01:30.510Z,5.87
2019-01-24T05:04:06.119Z,5.57
2019-01-24T05:06:42.839Z,5.33
2019-01-24T05:09:23.049Z,4.87
2019-01-24T05:12:00.766Z,6.47
2019-01-24T05:14:38.782Z,6.37
2019-01-24T05:17:15.718Z,5.90
2019-01-24T05:19:52.479Z,6.40
2019-01-24T05:22:31.459Z,6.77
2019-01-24T05:25:10.561Z,5.07
2019-01-24T05:27:51.310Z,5.73
2019-01-24T05:30:43.066Z,6.10
2019-01-24T05:33:20.184Z,6.83
2019-01-24T05:35:59.311Z,7.37
2019-01-24T05:38:43.899Z,5.50
2019-01-24T05:41:27.219Z,5.60
2019-01-24T05:44:01.077Z,6.80
2019-01-24T05:46:36.796Z,7.57
2019-01-24T05:49:11.442Z,7.10
2019-01-24T05:51:48.327Z,6.17
2019-01-24T05:54:25.097Z,10.13
2019-01-24T05:57:11.018Z,11.73
2019-01-24T05:59:54.906Z,12.07
2019-01-24T06:02:31.494Z,9.43
2019-01-24T06:05:26.069Z,6.47
2019-01-24T06:08:04.203Z,7.60
2019-01-24T06:10:44.557Z,8.53
2019-01-24T06:13:21.245Z,6.57
2019-01-24T06:16:03.633Z,6.70
2019-01-24T06:18:43.812Z,6.63
2019-01-24T06:21:23.310Z,6.37
2019-01-24T06:24:00.722Z,6.10
2019-01-24T06:26:38.436Z,8.47
2019-01-24T06:29:25.269Z,6.77
2019-01-24T06:32:02.439Z,8.10
2019-01-24T06:34:39.480Z,6.70
2019-01-24T06:37:15.062Z,7.10
2019-01-24T06:39:50.769Z,6.07
2019-01-24T06:42:26.098Z,6.27
2019-01-24T06:45:12.509Z,6.30
2019-01-24T06:47:50.134Z,6.67
2019-01-24T06:50:27.102Z,6.87
2019-01-24T06:53:02.701Z,5.90
2019-01-24T06:55:41.200Z,8.00
2019-01-24T06:58:19.859Z,8.00
2019-01-24T07:00:58.067Z,11.90
2019-01-24T07:03:50.171Z,9.13
2019-01-24T07:06:32.988Z,8.63
2019-01-24T07:09:12.768Z,8.57
2019-01-24T07:11:49.484Z,7.10
2019-01-24T07:14:37.333Z,8.63
2019-01-24T07:17:11.781Z,7.47
2019-01-24T07:19:46.399Z,5.83
2019-01-24T07:22:22.407Z,8.60
2019-01-24T07:25:00.867Z,6.30
2019-01-24T07:27:39.809Z,8.13
2019-01-24T07:30:29.709Z,7.17
2019-01-24T07:33:14.040Z,7.10
2019-01-24T07:39:04.669Z,7.63
2019-01-24T07:41:39.558Z,10.50
2019-01-24T07:44:21.344Z,6.93
2019-01-24T07:47:01.057Z,6.77
2019-01-24T07:49:40.852Z,7.23
2019-01-24T07:52:21.968Z,8.53
2019-01-24T07:54:59.390Z,7.40
2019-01-24T07:57:44.187Z,8.43
2019-01-24T08:00:29.574Z,9.57
2019-01-24T08:03:05.590Z,11.40
2019-01-24T08:05:41.768Z,9.93
2019-01-24T08:08:18.437Z,9.50
2019-01-24T08:10:57.059Z,10.03
2019-01-24T08:13:36.178Z,8.23
2019-01-24T08:16:13.644Z,10.33
2019-01-24T08:18:50.156Z,11.53
2019-01-24T08:21:25.269Z,8.53
2019-01-24T08:24:02.736Z,9.90
2019-01-24T08:26:41.241Z,9.30
2019-01-24T08:29:19.974Z,10.97
2019-01-24T08:31:57.550Z,8.87
2019-01-24T08:34:32.138Z,9.70
2019-01-24T08:37:08.918Z,10.80
2019-01-24T08:39:44.815Z,11.27
2019-01-24T08:42:22.326Z,10.00
2019-01-24T08:44:56.801Z,10.57
2019-01-24T08:47:46.329Z,8.07
2019-01-24T08:50:28.616Z,9.77
2019-01-24T08:53:03.732Z,7.93
2019-01-24T08:55:42.025Z,10.17
2019-01-24T08:58:18.654Z,7.23
2019-01-24T09:00:53.943Z,8.57
2019-01-24T09:03:29.212Z,11.17
2019-01-24T09:06:04.640Z,8.70
2019-01-24T09:08:39.578Z,8.37
2019-01-24T09:11:16.411Z,8.40
2019-01-24T09:13:53.144Z,8.83
2019-01-24T09:16:29.427Z,10.73
2019-01-24T09:19:03.866Z,10.17
2019-01-24T09:21:38.702Z,11.27
2019-01-24T09:24:16.836Z,8.30
2019-01-24T09:26:51.263Z,10.67
2019-01-24T09:29:29.313Z,8.63
2019-01-24T09:32:07.523Z,10.90
2019-01-24T09:34:48.176Z,10.20
2019-01-24T09:37:23.267Z,8.77
2019-01-24T09:39:59.357Z,11.03
2019-01-24T09:42:36.315Z,10.33
2019-01-24T09:45:13.979Z,9.33
2019-01-24T09:47:52.152Z,12.27
2019-01-24T09:50:28.179Z,10.93
2019-01-24T09:53:08.775Z,13.37
2019-01-24T09:55:47.320Z,13.63
2019-01-24T09:58:22.234Z,14.43
2019-01-24T10:01:00.432Z,13.47
2019-01-24T10:03:35.745Z,11.53
2019-01-24T10:06:12.351Z,13.27
2019-01-24T10:08:48.710Z,10.73
2019-01-24T10:11:23.964Z,14.23
2019-01-24T10:14:08.998Z,12.43
2019-01-24T10:16:47.489Z,11.17
2019-01-24T10:19:23.023Z,12.80
2019-01-24T10:22:03.864Z,10.70
2019-01-24T10:24:38.431Z,11.97
2019-01-24T10:27:14.411Z,10.80
2019-01-24T10:29:55.179Z,11.90
2019-01-24T10:32:30.712Z,15.20
2019-01-24T10:35:14.803Z,14.73
2019-01-24T10:37:57.420Z,12.03
2019-01-24T10:40:38.996Z,11.20
2019-01-24T10:43:14.953Z,15.27
2019-01-24T10:45:50.877Z,10.83
2019-01-24T10:48:26.764Z,18.73
2019-01-24T10:51:00.768Z,13.73
2019-01-24T10:53:44.152Z,10.83
2019-01-24T10:56:19.033Z,14.30
2019-01-24T10:58:56.011Z,13.47
2019-01-24T11:01:32.639Z,12.33
2019-01-24T11:04:08.474Z,14.07
2019-01-24T11:06:49.991Z,11.07
2019-01-24T11:09:21.503Z,13.07
2019-01-24T11:11:56.433Z,16.13
2019-01-24T11:14:35.390Z,12.80
2019-01-24T11:17:11.230Z,12.40
2019-01-24T11:19:48.726Z,11.83
2019-01-24T11:22:27.790Z,14.23
2019-01-24T11:25:02.056Z,14.67
2019-01-24T11:27:36.937Z,13.93
2019-01-24T11:30:20.370Z,13.07
2019-01-24T11:33:00.303Z,14.67
2019-01-24T11:35:36.137Z,12.90
2019-01-24T11:38:11.260Z,17.87
2019-01-24T11:40:48.031Z,15.10
2019-01-24T11:43:27.686Z,14.47
2019-01-24T11:46:15.520Z,15.10
2019-01-24T11:48:51.237Z,16.30
2019-01-24T11:51:26.148Z,15.73
2019-01-24T11:54:01.947Z,14.73
2019-01-24T11:56:38.660Z,13.80
2019-01-24T11:59:20.557Z,15.30
2019-01-24T12:01:54.819Z,14.23
2019-01-24T12:04:30.287Z,14.00
2019-01-24T12:07:07.051Z,14.13
2019-01-24T12:09:42.579Z,15.43
2019-01-24T12:12:16.783Z,12.80
2019-01-24T12:14:51.683Z,13.40
2019-01-24T12:17:27.307Z,13.03
2019-01-24T12:20:02.473Z,13.63
2019-01-24T12:22:38.353Z,11.77
2019-01-24T12:25:13.238Z,12.30
2019-01-24T12:27:52.795Z,14.80
2019-01-24T12:30:39.644Z,13.30
2019-01-24T12:33:13.957Z,14.17
2019-01-24T12:35:52.741Z,13.37
2019-01-24T12:38:29.249Z,13.03
2019-01-24T12:41:05.074Z,12.37
2019-01-24T12:43:45.989Z,11.67
2019-01-24T12:46:22.721Z,11.27
2019-01-24T12:48:59.695Z,12.23
2019-01-24T12:51:34.281Z,10.97
2019-01-24T12:54:13.307Z,14.27
2019-01-24T12:56:52.030Z,12.67
2019-01-24T12:59:29.863Z,12.47
2019-01-24T13:02:06.510Z,12.67
2019-01-24T13:04:41.203Z,11.70
2019-01-24T13:07:18.490Z,28.20
2019-01-24T13:09:58.397Z,22.07
2019-01-24T13:12:38.799Z,16.33
2019-01-24T13:15:14.425Z,14.13
2019-01-24T13:17:49.111Z,12.70
2019-01-24T13:20:25.795Z,14.53
2019-01-24T13:23:03.004Z,17.13
2019-01-24T13:25:39.473Z,16.53
2019-01-24T13:28:13.895Z,18.03
2019-01-24T13:30:51.834Z,17.07
2019-01-24T13:33:29.401Z,18.27
2019-01-24T13:36:04.041Z,16.30
2019-01-24T13:38:39.199Z,17.70
2019-01-24T13:41:16.554Z,14.37
2019-01-24T13:43:54.710Z,17.37
2019-01-24T13:46:36.754Z,18.13
2019-01-24T13:49:21.781Z,17.87
2019-01-24T13:52:01.254Z,16.73
2019-01-24T13:54:36.763Z,15.67
2019-01-24T13:57:31.692Z,16.90
2019-01-24T14:00:16.755Z,16.43
2019-01-24T14:02:52.236Z,14.10
2019-01-24T14:05:26.643Z,15.97
2019-01-24T14:08:02.429Z,15.60
2019-01-24T14:10:38.144Z,15.70
2019-01-24T14:13:13.770Z,14.97
2019-01-24T14:15:48.447Z,16.17
2019-01-24T14:18:23.034Z,15.03
2019-01-24T14:20:58.505Z,15.83
2019-01-24T14:23:33.875Z,13.13
2019-01-24T14:26:16.038Z,18.67
2019-01-24T14:28:55.574Z,23.97
2019-01-24T14:31:32.591Z,21.93
2019-01-24T14:34:08.607Z,45.93
2019-01-24T14:36:43.916Z,15.77
2019-01-24T14:39:18.556Z,25.07
2019-01-24T14:41:54.110Z,58.03
2019-01-24T14:44:30.060Z,47.57
2019-01-24T14:47:05.550Z,53.37
2019-01-24T14:49:44.649Z,22.07
2019-01-24T14:52:20.451Z,22.87
2019-01-24T14:54:55.368Z,27.80
2019-01-24T14:57:31.214Z,27.13
2019-01-24T15:00:25.615Z,21.23
2019-01-24T15:03:00.807Z,26.77
2019-01-24T15:05:38.277Z,34.50
2019-01-24T15:08:20.150Z,21.53
2019-01-24T15:10:54.503Z,29.67
2019-01-24T15:13:33.903Z,33.73
2019-01-24T15:16:11.321Z,52.60
2019-01-24T15:18:50.235Z,28.57
2019-01-24T15:21:28.472Z,34.07
2019-01-24T15:24:05.098Z,24.93
2019-01-24T15:26:39.572Z,117.13
2019-01-24T15:29:15.668Z,28.93
2019-01-24T15:31:52.333Z,30.33
2019-01-24T15:34:31.077Z,97.73
2019-01-24T15:37:08.694Z,21.67
2019-01-24T15:39:45.163Z,23.93
2019-01-24T15:42:21.910Z,23.77
2019-01-24T15:44:57.299Z,223.63
2019-01-24T15:47:33.347Z,43.70
2019-01-24T15:50:09.947Z,117.30
2019-01-24T15:52:45.756Z,260.83
2019-01-24T15:55:22.636Z,302.63
2019-01-24T15:58:07.684Z,177.60
2019-01-24T16:00:47.494Z,169.67
2019-01-24T16:03:26.123Z,160.43
2019-01-24T16:06:02.431Z,205.77
2019-01-24T16:08:42.461Z,264.63
2019-01-24T16:11:18.666Z,262.87
2019-01-24T16:13:55.220Z,123.23
2019-01-24T16:16:38.123Z,102.43
2019-01-24T16:19:13.949Z,108.83
2019-01-24T16:21:58.662Z,37.37
2019-01-24T16:24:37.892Z,81.23
2019-01-24T16:27:13.566Z,67.87
2019-01-24T16:29:51.021Z,25.13
2019-01-24T16:32:29.232Z,49.80
2019-01-24T16:35:08.530Z,35.10
2019-01-24T16:37:47.019Z,24.27
2019-01-24T16:40:25.609Z,49.17
2019-01-24T16:43:01.548Z,22.73
2019-01-24T16:45:39.582Z,35.90
2019-01-24T16:48:15.399Z,45.43
2019-01-24T16:50:54.618Z,23.80
2019-01-24T16:53:31.387Z,61.00
2019-01-24T16:56:06.608Z,34.43
2019-01-24T16:58:44.164Z,40.77
2019-01-24T17:01:33.453Z,28.27
2019-01-24T17:04:17.290Z,30.43
2019-01-24T17:06:55.619Z,24.67
2019-01-24T17:09:31.666Z,25.77
2019-01-24T17:12:07.917Z,23.90
2019-01-24T17:14:43.929Z,27.83
2019-01-24T17:17:21.459Z,24.37
2019-01-24T17:19:56.115Z,38.20
2019-01-24T17:22:34.672Z,36.57
2019-01-24T17:25:10.522Z,74.57
2019-01-24T17:27:48.763Z,34.10
2019-01-24T17:30:28.708Z,24.17
2019-01-24T17:33:07.669Z,19.53
2019-01-24T17:35:45.102Z,22.20
2019-01-24T17:38:23.785Z,20.63
2019-01-24T17:40:57.414Z,25.80
2019-01-24T17:43:35.872Z,17.60
2019-01-24T17:46:17.819Z,19.43
2019-01-24T17:48:57.277Z,20.17
2019-01-24T17:51:31.610Z,16.97
2019-01-24T17:54:08.730Z,19.40
2019-01-24T17:56:51.209Z,19.50
2019-01-24T17:59:39.964Z,18.93
2019-01-24T18:02:18.678Z,16.40
2019-01-24T18:04:59.485Z,17.00
2019-01-24T18:07:35.752Z,18.00
2019-01-24T18:10:22.141Z,18.30
2019-01-24T18:13:05.493Z,16.53
2019-01-24T18:15:41.452Z,17.70
2019-01-24T18:18:18.484Z,15.90
2019-01-24T18:20:54.970Z,17.33
2019-01-24T18:23:35.906Z,18.23
2019-01-24T18:26:14.495Z,20.27
2019-01-24T18:28:55.969Z,17.30
2019-01-24T18:31:34.610Z,16.93
2019-01-24T18:34:19.041Z,15.47
2019-01-24T18:36:56.770Z,15.23
2019-01-24T18:39:35.208Z,14.40
2019-01-24T18:42:16.378Z,14.70
2019-01-24T18:45:00.194Z,14.30
2019-01-24T18:47:38.934Z,14.37
2019-01-24T18:50:26.998Z,12.83
2019-01-24T18:53:06.281Z,11.77
2019-01-24T18:55:51.173Z,15.40
2019-01-24T18:58:28.459Z,13.70
2019-01-24T19:01:09.018Z,13.20
2019-01-24T19:03:48.616Z,13.77
2019-01-24T19:06:27.695Z,17.70
2019-01-24T19:09:08.907Z,12.43
2019-01-24T19:11:46.989Z,13.70
2019-01-24T19:14:26.503Z,14.60
2019-01-24T19:17:04.054Z,12.47
2019-01-24T19:19:46.850Z,14.63
2019-01-24T19:22:22.420Z,15.53
2019-01-24T19:25:01.087Z,11.87
2019-01-24T19:27:39.697Z,13.80
2019-01-24T19:30:35.464Z,14.43
2019-01-24T19:33:18.646Z,14.40
2019-01-24T19:36:00.301Z,13.63
2019-01-24T19:38:34.147Z,10.43
2019-01-24T19:41:14.494Z,11.50
2019-01-24T19:43:52.365Z,11.90
2019-01-24T19:46:29.920Z,12.27
2019-01-24T19:49:06.873Z,10.27
2019-01-24T19:51:53.795Z,16.60
2019-01-24T19:54:29.851Z,12.27
2019-01-24T19:57:07.769Z,11.77
2019-01-24T19:59:46.059Z,12.67
2019-01-24T20:02:24.061Z,10.73
2019-01-24T20:05:01.192Z,10.53
2019-01-24T20:07:36.443Z,10.07
2019-01-24T20:10:18.523Z,10.10
2019-01-24T20:12:54.983Z,10.03
2019-01-24T20:15:35.159Z,8.33
2019-01-24T20:18:13.358Z,9.70
2019-01-24T20:20:48.335Z,10.47
2019-01-24T20:23:24.744Z,8.40
2019-01-24T20:26:06.066Z,10.67
2019-01-24T20:28:42.927Z,8.50
2019-01-24T20:31:24.346Z,7.83
2019-01-24T20:34:04.934Z,8.83
2019-01-24T20:36:41.905Z,8.63
2019-01-24T20:39:18.687Z,7.73
2019-01-24T20:41:54.887Z,6.77
2019-01-24T20:44:36.013Z,7.73
2019-01-24T20:47:11.440Z,6.47
2019-01-24T20:49:51.014Z,8.50
2019-01-24T20:52:38.466Z,8.37
2019-01-24T20:55:16.149Z,10.90
2019-01-24T20:58:00.278Z,8.73
2019-01-24T21:00:46.611Z,8.13
2019-01-24T21:03:35.783Z,9.60
2019-01-24T21:06:12.118Z,8.17
2019-01-24T21:08:50.791Z,10.13
2019-01-24T21:11:25.017Z,8.47
2019-01-24T21:14:03.848Z,8.47
2019-01-24T21:16:50.103Z,6.30
2019-01-24T21:19:27.664Z,7.33
2019-01-24T21:22:04.555Z,5.37
2019-01-24T21:24:38.826Z,7.07
2019-01-24T21:27:13.457Z,8.70
2019-01-24T21:29:51.197Z,5.50
2019-01-24T21:32:28.587Z,7.07
2019-01-24T21:35:05.549Z,7.17
2019-01-24T21:37:44.513Z,9.33
2019-01-24T21:40:55.171Z,8.37
2019-01-24T21:47:24.201Z,6.50
2019-01-24T21:50:05.325Z,6.13
2019-01-24T21:52:40.570Z,8.10
2019-01-24T21:55:36.518Z,6.37
2019-01-24T21:58:21.151Z,5.03
2019-01-24T22:00:58.430Z,6.63
2019-01-24T22:03:36.919Z,6.57
2019-01-24T22:06:15.061Z,6.67
2019-01-24T22:08:51.733Z,5.00
2019-01-24T22:11:28.376Z,6.93
2019-01-24T22:14:05.154Z,5.80
2019-01-24T22:16:39.948Z,7.67
2019-01-24T22:19:14.390Z,4.80
2019-01-24T22:21:49.024Z,6.07
2019-01-24T22:24:23.924Z,6.97
2019-01-24T22:27:01.069Z,6.47
2019-01-24T22:29:37.808Z,5.00
2019-01-24T22:32:12.078Z,7.23
2019-01-24T22:34:51.886Z,6.17
2019-01-24T22:37:28.588Z,5.77
2019-01-24T22:40:03.489Z,7.80
2019-01-24T22:42:39.093Z,6.70
2019-01-24T22:45:18.737Z,4.17
2019-01-24T22:47:59.248Z,3.90
2019-01-24T22:50:36.131Z,4.23
2019-01-24T22:53:16.746Z,4.47
2019-01-24T22:56:01.270Z,5.30
2019-01-24T22:58:40.961Z,4.97
2019-01-24T23:01:42.416Z,7.97
2019-01-24T23:04:27.529Z,7.83
2019-01-24T23:07:08.923Z,4.73
2019-01-24T23:09:54.053Z,7.80
2019-01-24T23:12:31.927Z,5.40
2019-01-24T23:15:13.307Z,6.03
2019-01-24T23:17:48.764Z,3.77
2019-01-24T23:20:24.922Z,5.73
2019-01-24T23:22:59.723Z,4.90
2019-01-24T23:25:34.850Z,3.37
2019-01-24T23:28:11.793Z,4.30
2019-01-24T23:30:48.256Z,4.53
2019-01-24T23:33:27.577Z,4.07
2019-01-24T23:36:08.144Z,3.47
2019-01-24T23:38:42.563Z,4.30
2019-01-24T23:41:16.883Z,4.47
2019-01-24T23:43:52.904Z,6.17
2019-01-24T23:46:27.350Z,5.60
2019-01-24T23:49:04.804Z,6.30
2019-01-24T23:51:39.297Z,6.83
2019-01-24T23:54:14.569Z,6.47
2019-01-24T23:56:50.536Z,5.30
2019-01-24T23:59:30.384Z,5.67
